Time,TemperatureF,DewpointF,PressureIn,WindDirection,WindDirectionDegrees,WindSpeedMPH,WindSpeedGustMPH,Humidity,HourlyPrecipIn,Conditions,Clouds,dailyrainin,SoftwareType,DateUTC
2013-03-14 00:00:00,28.0,18.2,30.22,ENE,57,4.0,16.0,66,0.00,,,0.00,WUHU216DAVISVP2,2013-03-14 04:00:00,
2013-03-14 00:05:00,27.8,18.3,30.22,North,4,4.0,16.0,67,0.00,,,0.00,WUHU216DAVISVP2,2013-03-14 04:05:00,
2013-03-14 00:10:00,27.8,18.6,30.22,East,81,1.0,16.0,68,0.00,,,0.00,WUHU216DAVISVP2,2013-03-14 04:10:00,
2013-03-14 00:15:00,27.8,18.7,30.22,East,81,4.0,14.0,68,0.00,,,0.00,WUHU216DAVISVP2,2013-03-14 04:15:00,
2013-03-14 00:20:00,27.7,18.6,30.22,East,86,0.0,15.0,68,0.00,,,0.00,WUHU216DAVISVP2,2013-03-14 04:20:00,
2013-03-14 00:25:00,27.7,18.6,30.22,SSE,150,2.0,15.0,68,0.00,,,0.00,WUHU216DAVISVP2,2013-03-14 04:25:00,
2013-03-14 00:30:00,27.7,18.5,30.22,SSE,160,4.0,15.0,68,0.00,,,0.00,WUHU216DAVISVP2,2013-03-14 04:30:00,
2013-03-14 00:35:00,27.6,17.8,30.22,SSE,160,0.0,15.0,66,0.00,,,0.00,WUHU216DAVISVP2,2013-03-14 04:35:00,
2013-03-14 00:40:00,27.5,17.7,30.22,East,92,2.0,14.0,66,0.00,,,0.00,WUHU216DAVISVP2,2013-03-14 04:40:00,
2013-03-14 00:45:00,27.4,17.6,30.22,SE,135,2.0,14.0,66,0.00,,,0.00,WUHU216DAVISVP2,2013-03-14 04:45:00,
2013-03-14 00:50:00,27.3,17.5,30.22,South,191,2.0,13.0,66,0.00,,,0.00,WUHU216DAVISVP2,2013-03-14 04:50:00,
2013-03-14 00:55:00,27.2,17.3,30.22,SSW,194,3.0,11.0,66,0.00,,,0.00,WUHU216DAVISVP2,2013-03-14 04:55:00,
2013-03-14 01:00:00,27.2,17.4,30.22,ENE,64,9.0,11.0,66,0.00,,,0.00,WUHU216DAVISVP2,2013-03-14 05:00:00,
2013-03-14 01:05:00,27.2,17.4,30.22,SE,141,3.0,12.0,66,0.00,,,0.00,WUHU216DAVISVP2,2013-03-14 05:05:00,
2013-03-14 01:10:00,27.2,17.4,30.23,SE,135,2.0,22.0,66,0.00,,,0.00,WUHU216DAVISVP2,2013-03-14 05:10:00,
2013-03-14 01:15:00,27.2,17.7,30.23,East,96,2.0,22.0,67,0.00,,,0.00,WUHU216DAVISVP2,2013-03-14 05:15:00,
2013-03-14 01:20:00,27.1,17.7,30.22,East,92,2.0,20.0,67,0.00,,,0.00,WUHU216DAVISVP2,2013-03-14 05:20:00,
2013-03-14 01:25:00,27.1,17.3,30.22,ENE,61,9.0,20.0,66,0.00,,,0.00,WUHU216DAVISVP2,2013-03-14 05:25:00,
2013-03-14 01:30:00,27.0,17.2,30.22,NNW,347,5.0,16.0,66,0.00,,,0.00,WUHU216DAVISVP2,2013-03-14 05:30:00,
2013-03-14 01:35:00,27.0,17.2,30.23,ENE,72,8.0,17.0,66,0.00,,,0.00,WUHU216DAVISVP2,2013-03-14 05:35:00,
2013-03-14 01:40:00,27.0,17.2,30.22,ESE,105,3.0,17.0,66,0.00,,,0.00,WUHU216DAVISVP2,2013-03-14 05:40:00,
2013-03-14 01:45:00,26.9,17.0,30.23,East,96,5.0,15.0,66,0.00,,,0.00,WUHU216DAVISVP2,2013-03-14 05:45:00,
2013-03-14 01:50:00,26.8,17.0,30.23,SE,142,4.0,15.0,66,0.00,,,0.00,WUHU216DAVISVP2,2013-03-14 05:50:00,
2013-03-14 01:55:00,26.7,17.2,30.23,ESE,115,2.0,15.0,67,0.00,,,0.00,WUHU216DAVISVP2,2013-03-14 05:55:00,
2013-03-14 02:00:00,26.6,17.2,30.23,ENE,68,4.0,13.0,67,0.00,,,0.00,WUHU216DAVISVP2,2013-03-14 06:00:00,
2013-03-14 02:05:00,26.6,17.5,30.23,SW,235,8.0,13.0,68,0.00,,,0.00,WUHU216DAVISVP2,2013-03-14 06:05:00,
2013-03-14 02:10:00,26.6,17.5,30.23,NE,39,3.0,12.0,68,0.00,,,0.00,WUHU216DAVISVP2,2013-03-14 06:10:00,
2013-03-14 02:15:00,26.5,17.4,30.23,SSE,159,1.0,11.0,68,0.00,,,0.00,WUHU216DAVISVP2,2013-03-14 06:15:00,
2013-03-14 02:20:00,26.5,17.4,30.23,SSE,166,4.0,12.0,68,0.00,,,0.00,WUHU216DAVISVP2,2013-03-14 06:20:00,
2013-03-14 02:25:00,26.5,17.4,30.23,SE,143,2.0,12.0,68,0.00,,,0.00,WUHU216DAVISVP2,2013-03-14 06:25:00,
2013-03-14 02:30:00,26.5,17.1,30.23,ENE,65,5.0,10.0,67,0.00,,,0.00,WUHU216DAVISVP2,2013-03-14 06:30:00,
2013-03-14 02:35:00,26.5,17.1,30.23,NE,46,12.0,19.0,67,0.00,,,0.00,WUHU216DAVISVP2,2013-03-14 06:35:00,
2013-03-14 02:40:00,26.5,17.1,30.23,ESE,111,4.0,19.0,67,0.00,,,0.00,WUHU216DAVISVP2,2013-03-14 06:40:00,
2013-03-14 02:45:00,26.5,17.1,30.23,East,97,1.0,17.0,67,0.00,,,0.00,WUHU216DAVISVP2,2013-03-14 06:45:00,
2013-03-14 02:50:00,26.5,17.1,30.24,ESE,111,3.0,15.0,67,0.00,,,0.00,WUHU216DAVISVP2,2013-03-14 06:50:00,
2013-03-14 02:55:00,26.5,17.0,30.24,SE,145,2.0,15.0,67,0.00,,,0.00,WUHU216DAVISVP2,2013-03-14 06:55:00,
2013-03-14 03:00:00,26.5,17.1,30.24,ESE,110,2.0,13.0,67,0.00,,,0.00,WUHU216DAVISVP2,2013-03-14 07:00:00,
2013-03-14 03:05:00,26.5,17.1,30.24,ESE,119,1.0,13.0,67,0.00,,,0.00,WUHU216DAVISVP2,2013-03-14 07:05:00,
2013-03-14 03:10:00,26.5,17.0,30.24,East,84,2.0,11.0,67,0.00,,,0.00,WUHU216DAVISVP2,2013-03-14 07:10:00,
2013-03-14 03:15:00,26.5,16.7,30.24,NE,55,2.0,11.0,66,0.00,,,0.00,WUHU216DAVISVP2,2013-03-14 07:15:00,
2013-03-14 03:20:00,26.4,16.3,30.24,ENE,63,2.0,10.0,65,0.00,,,0.00,WUHU216DAVISVP2,2013-03-14 07:20:00,
2013-03-14 03:25:00,26.4,16.6,30.24,ENE,61,3.0,10.0,66,0.00,,,0.00,WUHU216DAVISVP2,2013-03-14 07:25:00,
2013-03-14 03:30:00,26.4,16.6,30.24,SE,142,1.0,10.0,66,0.00,,,0.00,WUHU216DAVISVP2,2013-03-14 07:30:00,
2013-03-14 03:35:00,26.3,16.5,30.24,South,169,2.0,9.0,66,0.00,,,0.00,WUHU216DAVISVP2,2013-03-14 07:35:00,
2013-03-14 03:46:00,26.2,16.4,30.24,SSE,150,3.0,9.0,66,0.00,,,0.00,WUHU216DAVISVP2,2013-03-14 07:46:00,
2013-03-14 03:51:00,26.1,16.3,30.24,SE,136,2.0,9.0,66,0.00,,,0.00,WUHU216DAVISVP2,2013-03-14 07:51:00,
2013-03-14 03:56:00,26.0,16.3,30.24,SE,124,1.0,9.0,66,0.00,,,0.00,WUHU216DAVISVP2,2013-03-14 07:56:00,
2013-03-14 04:01:00,26.0,16.2,30.24,SW,222,5.0,13.0,66,0.00,,,0.00,WUHU216DAVISVP2,2013-03-14 08:01:00,
2013-03-14 04:06:00,25.9,16.2,30.24,SE,140,2.0,13.0,66,0.00,,,0.00,WUHU216DAVISVP2,2013-03-14 08:06:00,
2013-03-14 04:11:00,25.8,16.1,30.24,ENE,73,3.0,13.0,66,0.00,,,0.00,WUHU216DAVISVP2,2013-03-14 08:11:00,
2013-03-14 04:16:00,25.8,16.4,30.24,ENE,65,1.0,13.0,67,0.00,,,0.00,WUHU216DAVISVP2,2013-03-14 08:16:00,
2013-03-14 04:21:00,25.7,16.3,30.24,SSE,148,2.0,13.0,67,0.00,,,0.00,WUHU216DAVISVP2,2013-03-14 08:21:00,
2013-03-14 04:26:00,25.7,16.3,30.24,SE,134,1.0,11.0,67,0.00,,,0.00,WUHU216DAVISVP2,2013-03-14 08:26:00,
2013-03-14 04:31:00,25.7,16.3,30.24,East,88,2.0,11.0,67,0.00,,,0.00,WUHU216DAVISVP2,2013-03-14 08:31:00,
2013-03-14 04:36:00,25.6,16.2,30.24,SE,143,2.0,7.0,67,0.00,,,0.00,WUHU216DAVISVP2,2013-03-14 08:36:00,
2013-03-14 04:41:00,25.5,16.1,30.24,East,96,1.0,10.0,67,0.00,,,0.00,WUHU216DAVISVP2,2013-03-14 08:41:00,
2013-03-14 04:46:00,25.3,15.6,30.24,East,86,3.0,12.0,66,0.00,,,0.00,WUHU216DAVISVP2,2013-03-14 08:46:00,
2013-03-14 04:51:00,25.2,15.5,30.24,East,98,3.0,12.0,66,0.00,,,0.00,WUHU216DAVISVP2,2013-03-14 08:51:00,
2013-03-14 04:56:00,25.1,15.4,30.24,SE,129,1.0,12.0,66,0.00,,,0.00,WUHU216DAVISVP2,2013-03-14 08:56:00,
2013-03-14 05:01:00,25.0,15.6,30.24,SE,129,1.0,12.0,67,0.00,,,0.00,WUHU216DAVISVP2,2013-03-14 09:01:00,
2013-03-14 05:06:00,24.9,15.5,30.24,ENE,66,4.0,11.0,67,0.00,,,0.00,WUHU216DAVISVP2,2013-03-14 09:06:00,
2013-03-14 05:11:00,24.8,15.4,30.24,ESE,110,0.0,7.0,67,0.00,,,0.00,WUHU216DAVISVP2,2013-03-14 09:11:00,
2013-03-14 05:16:00,24.8,15.1,30.24,SE,141,2.0,7.0,66,0.00,,,0.00,WUHU216DAVISVP2,2013-03-14 09:16:00,
2013-03-14 05:21:00,24.3,14.6,30.24,NE,54,3.0,9.0,66,0.00,,,0.00,WUHU216DAVISVP2,2013-03-14 09:21:00,
2013-03-14 05:26:00,26.0,15.5,30.24,WSW,257,0.0,9.0,64,0.00,,,0.00,WUHU216DAVISVP2,2013-03-14 09:26:00,
2013-03-14 05:31:00,26.0,15.8,30.24,North,354,2.0,8.0,65,0.00,,,0.00,WUHU216DAVISVP2,2013-03-14 09:31:00,
2013-03-14 05:36:00,26.0,15.5,30.25,West,281,0.0,13.0,64,0.00,,,0.00,WUHU216DAVISVP2,2013-03-14 09:36:00,
2013-03-14 05:41:00,26.0,15.5,30.25,West,269,2.0,13.0,64,0.00,,,0.00,WUHU216DAVISVP2,2013-03-14 09:41:00,
2013-03-14 05:46:00,26.0,15.8,30.25,North,354,0.0,13.0,65,0.00,,,0.00,WUHU216DAVISVP2,2013-03-14 09:46:00,
2013-03-14 05:51:00,26.0,15.5,30.25,NNW,345,0.0,12.0,64,0.00,,,0.00,WUHU216DAVISVP2,2013-03-14 09:51:00,
2013-03-14 05:56:00,26.1,16.0,30.25,WNW,295,5.0,8.0,65,0.00,,,0.00,WUHU216DAVISVP2,2013-03-14 09:56:00,
2013-03-14 06:01:00,26.1,16.0,30.25,South,183,2.0,8.0,65,0.00,,,0.00,WUHU216DAVISVP2,2013-03-14 10:01:00,
2013-03-14 06:06:00,26.1,16.0,30.25,WSW,239,0.0,12.0,65,0.00,,,0.00,WUHU216DAVISVP2,2013-03-14 10:06:00,
2013-03-14 06:11:00,26.1,16.3,30.25,NNW,329,2.0,12.0,66,0.00,,,0.00,WUHU216DAVISVP2,2013-03-14 10:11:00,
2013-03-14 06:16:00,26.1,16.3,30.25,NNW,339,0.0,11.0,66,0.00,,,0.00,WUHU216DAVISVP2,2013-03-14 10:16:00,
2013-03-14 06:21:00,25.9,16.5,30.25,SSW,205,1.0,8.0,67,0.00,,,0.00,WUHU216DAVISVP2,2013-03-14 10:21:00,
2013-03-14 06:26:00,25.9,16.2,30.25,West,259,2.0,8.0,66,0.00,,,0.00,WUHU216DAVISVP2,2013-03-14 10:26:00,
2013-03-14 06:31:00,26.0,16.2,30.26,North,8,4.0,8.0,66,0.00,,,0.00,WUHU216DAVISVP2,2013-03-14 10:31:00,
2013-03-14 06:36:00,26.0,16.3,30.26,NNE,26,1.0,8.0,66,0.00,,,0.00,WUHU216DAVISVP2,2013-03-14 10:36:00,
2013-03-14 06:41:00,26.0,16.3,30.26,WNW,290,0.0,10.0,66,0.00,,,0.00,WUHU216DAVISVP2,2013-03-14 10:41:00,
2013-03-14 06:46:00,26.0,16.3,30.26,NNW,348,3.0,10.0,66,0.00,,,0.00,WUHU216DAVISVP2,2013-03-14 10:46:00,
2013-03-14 06:51:00,26.1,16.3,30.26,ESE,122,0.0,9.0,66,0.00,,,0.00,WUHU216DAVISVP2,2013-03-14 10:51:00,
2013-03-14 06:56:00,26.1,16.3,30.26,WNW,295,0.0,9.0,66,0.00,,,0.00,WUHU216DAVISVP2,2013-03-14 10:56:00,
2013-03-14 07:01:00,26.1,16.7,30.26,NNW,333,1.0,7.0,67,0.00,,,0.00,WUHU216DAVISVP2,2013-03-14 11:01:00,
2013-03-14 07:06:00,26.1,16.7,30.27,NW,318,2.0,8.0,67,0.00,,,0.00,WUHU216DAVISVP2,2013-03-14 11:06:00,
2013-03-14 07:11:00,26.1,16.3,30.27,North,352,3.0,8.0,66,0.00,,,0.00,WUHU216DAVISVP2,2013-03-14 11:11:00,
2013-03-14 07:16:00,26.1,16.3,30.27,North,359,2.0,9.0,66,0.00,,,0.00,WUHU216DAVISVP2,2013-03-14 11:16:00,
2013-03-14 07:22:00,26.1,16.7,30.27,NW,311,0.0,9.0,67,0.00,,,0.00,WUHU216DAVISVP2,2013-03-14 11:22:00,
2013-03-14 07:27:00,25.9,16.5,30.27,NNW,341,0.0,9.0,67,0.00,,,0.00,WUHU216DAVISVP2,2013-03-14 11:27:00,
2013-03-14 07:32:00,25.8,16.4,30.27,ENE,69,1.0,8.0,67,0.00,,,0.00,WUHU216DAVISVP2,2013-03-14 11:32:00,
2013-03-14 07:37:00,25.8,16.4,30.27,NNW,340,2.0,6.0,67,0.00,,,0.00,WUHU216DAVISVP2,2013-03-14 11:37:00,
2013-03-14 07:42:00,25.7,16.7,30.27,WNW,295,2.0,6.0,68,0.00,,,0.00,WUHU216DAVISVP2,2013-03-14 11:42:00,
2013-03-14 07:47:00,25.7,16.7,30.27,NNW,345,0.0,6.0,68,0.00,,,0.00,WUHU216DAVISVP2,2013-03-14 11:47:00,
2013-03-14 07:52:00,25.8,16.8,30.27,WSW,239,0.0,6.0,68,0.00,,,0.00,WUHU216DAVISVP2,2013-03-14 11:52:00,
2013-03-14 07:57:00,25.8,16.7,30.27,NNW,328,0.0,6.0,68,0.00,,,0.00,WUHU216DAVISVP2,2013-03-14 11:57:00,
2013-03-14 08:02:00,25.8,16.7,30.27,WNW,297,0.0,6.0,68,0.00,,,0.00,WUHU216DAVISVP2,2013-03-14 12:02:00,
2013-03-14 08:07:00,25.8,17.1,30.27,ENE,75,1.0,6.0,69,0.00,,,0.00,WUHU216DAVISVP2,2013-03-14 12:07:00,
2013-03-14 08:12:00,25.8,17.1,30.28,SSE,160,0.0,6.0,69,0.00,,,0.00,WUHU216DAVISVP2,2013-03-14 12:12:00,
2013-03-14 08:17:00,25.9,16.8,30.28,NNE,27,2.0,6.0,68,0.00,,,0.00,WUHU216DAVISVP2,2013-03-14 12:17:00,
2013-03-14 08:22:00,26.0,16.9,30.28,NW,322,2.0,6.0,68,0.00,,,0.00,WUHU216DAVISVP2,2013-03-14 12:22:00,
2013-03-14 08:27:00,26.1,17.0,30.28,East,98,3.0,8.0,68,0.00,,,0.00,WUHU216DAVISVP2,2013-03-14 12:27:00,
2013-03-14 08:32:00,26.1,17.0,30.28,NNW,347,0.0,8.0,68,0.00,,,0.00,WUHU216DAVISVP2,2013-03-14 12:32:00,
2013-03-14 08:37:00,26.2,17.5,30.28,NE,36,0.0,7.0,69,0.00,,,0.00,WUHU216DAVISVP2,2013-03-14 12:37:00,
2013-03-14 08:42:00,26.2,17.4,30.28,SSW,198,2.0,7.0,69,0.00,,,0.00,WUHU216DAVISVP2,2013-03-14 12:42:00,
2013-03-14 08:47:00,26.3,17.5,30.28,NNE,27,4.0,6.0,69,0.00,,,0.00,WUHU216DAVISVP2,2013-03-14 12:47:00,
2013-03-14 08:52:00,26.4,17.3,30.28,NNW,333,4.0,10.0,68,0.00,,,0.00,WUHU216DAVISVP2,2013-03-14 12:52:00,
2013-03-14 08:57:00,26.5,17.4,30.28,North,349,0.0,10.0,68,0.00,,,0.00,WUHU216DAVISVP2,2013-03-14 12:57:00,
2013-03-14 09:02:00,26.7,18.0,30.28,NNW,346,2.0,9.0,69,0.00,,,0.00,WUHU216DAVISVP2,2013-03-14 13:02:00,
2013-03-14 09:07:00,26.9,17.8,30.29,NNW,347,0.0,9.0,68,0.00,,,0.00,WUHU216DAVISVP2,2013-03-14 13:07:00,
2013-03-14 09:12:00,27.0,17.9,30.29,West,281,3.0,9.0,68,0.00,,,0.00,WUHU216DAVISVP2,2013-03-14 13:12:00,
2013-03-14 09:17:00,27.1,18.0,30.29,NNW,338,2.0,8.0,68,0.00,,,0.00,WUHU216DAVISVP2,2013-03-14 13:17:00,
2013-03-14 09:22:00,27.1,17.9,30.29,NNE,27,1.0,8.0,68,0.00,,,0.00,WUHU216DAVISVP2,2013-03-14 13:22:00,
2013-03-14 09:27:00,27.3,18.2,30.29,North,6,0.0,8.0,68,0.00,,,0.00,WUHU216DAVISVP2,2013-03-14 13:27:00,
2013-03-14 09:32:00,27.5,18.7,30.29,NNW,335,1.0,7.0,69,0.00,,,0.00,WUHU216DAVISVP2,2013-03-14 13:32:00,
2013-03-14 09:37:00,27.6,18.5,30.30,East,100,0.0,7.0,68,0.00,,,0.00,WUHU216DAVISVP2,2013-03-14 13:37:00,
2013-03-14 09:42:00,27.6,18.1,30.30,SSE,162,0.0,10.0,67,0.00,,,0.00,WUHU216DAVISVP2,2013-03-14 13:42:00,
2013-03-14 09:47:00,27.6,18.5,30.30,East,101,0.0,10.0,68,0.00,,,0.00,WUHU216DAVISVP2,2013-03-14 13:47:00,
2013-03-14 09:52:00,27.7,18.6,30.30,NNE,19,1.0,10.0,68,0.00,,,0.00,WUHU216DAVISVP2,2013-03-14 13:52:00,
2013-03-14 09:57:00,27.9,18.7,30.30,SSW,194,0.0,9.0,68,0.00,,,0.00,WUHU216DAVISVP2,2013-03-14 13:57:00,
2013-03-14 10:02:00,27.8,19.0,30.30,SW,231,0.0,10.0,69,0.00,,,0.00,WUHU216DAVISVP2,2013-03-14 14:02:00,
2013-03-14 10:07:00,27.8,18.3,30.30,NE,34,1.0,10.0,67,0.00,,,0.00,WUHU216DAVISVP2,2013-03-14 14:07:00,
2013-03-14 10:12:00,27.9,18.4,30.30,NW,305,5.0,9.0,67,0.00,,,0.00,WUHU216DAVISVP2,2013-03-14 14:12:00,
2013-03-14 10:17:00,27.9,18.1,30.30,NE,39,4.0,9.0,66,0.00,,,0.00,WUHU216DAVISVP2,2013-03-14 14:17:00,
2013-03-14 10:22:00,27.8,17.9,30.30,South,177,2.0,8.0,66,0.00,,,0.00,WUHU216DAVISVP2,2013-03-14 14:22:00,
2013-03-14 10:27:00,28.0,18.5,30.30,NNE,29,4.0,8.0,67,0.00,,,0.00,WUHU216DAVISVP2,2013-03-14 14:27:00,
2013-03-14 10:32:00,27.9,18.4,30.30,North,11,1.0,11.0,67,0.00,,,0.00,WUHU216DAVISVP2,2013-03-14 14:32:00,
2013-03-14 10:37:00,28.0,18.9,30.30,NW,309,1.0,11.0,68,0.00,,,0.00,WUHU216DAVISVP2,2013-03-14 14:37:00,
2013-03-14 10:42:00,28.2,19.1,30.30,West,264,0.0,10.0,68,0.00,,,0.00,WUHU216DAVISVP2,2013-03-14 14:42:00,
2013-03-14 10:47:00,28.1,18.3,30.30,NW,325,1.0,10.0,66,0.00,,,0.00,WUHU216DAVISVP2,2013-03-14 14:47:00,
2013-03-14 10:52:00,28.1,19.0,30.31,South,188,4.0,9.0,68,0.00,,,0.00,WUHU216DAVISVP2,2013-03-14 14:52:00,
2013-03-14 10:57:00,28.5,19.7,30.30,West,269,0.0,9.0,69,0.00,,,0.00,WUHU216DAVISVP2,2013-03-14 14:57:00,
2013-03-14 11:02:00,28.2,19.0,30.31,East,79,2.0,9.0,68,0.00,,,0.00,WUHU216DAVISVP2,2013-03-14 15:02:00,
2013-03-14 11:07:00,28.1,18.9,30.31,NNW,330,3.0,7.0,68,0.00,,,0.00,WUHU216DAVISVP2,2013-03-14 15:07:00,
2013-03-14 11:12:00,27.9,18.8,30.31,SW,226,4.0,9.0,68,0.00,,,0.00,WUHU216DAVISVP2,2013-03-14 15:12:00,
2013-03-14 11:17:00,27.9,18.8,30.31,SW,232,2.0,9.0,68,0.00,,,0.00,WUHU216DAVISVP2,2013-03-14 15:17:00,
2013-03-14 11:22:00,27.9,18.7,30.31,NNW,334,2.0,9.0,68,0.00,,,0.00,WUHU216DAVISVP2,2013-03-14 15:22:00,
2013-03-14 11:27:00,28.4,19.2,30.31,SSE,148,0.0,9.0,68,0.00,,,0.00,WUHU216DAVISVP2,2013-03-14 15:27:00,
2013-03-14 11:32:00,29.0,19.8,30.31,NNW,343,5.0,7.0,68,0.00,,,0.00,WUHU216DAVISVP2,2013-03-14 15:32:00,
2013-03-14 11:37:00,29.3,19.4,30.31,ENE,66,5.0,7.0,66,0.00,,,0.00,WUHU216DAVISVP2,2013-03-14 15:37:00,
2013-03-14 11:42:00,29.5,19.5,30.31,NNE,27,1.0,6.0,66,0.00,,,0.00,WUHU216DAVISVP2,2013-03-14 15:42:00,
2013-03-14 11:47:00,29.9,19.6,30.31,SSW,210,1.0,8.0,65,0.00,,,0.00,WUHU216DAVISVP2,2013-03-14 15:47:00,
2013-03-14 11:52:00,30.4,20.1,30.31,NNW,348,2.0,8.0,65,0.00,,,0.00,WUHU216DAVISVP2,2013-03-14 15:52:00,
2013-03-14 11:57:00,30.4,20.1,30.31,North,358,1.0,7.0,65,0.00,,,0.00,WUHU216DAVISVP2,2013-03-14 15:57:00,
2013-03-14 12:02:00,30.1,19.4,30.31,North,11,2.0,7.0,64,0.00,,,0.00,WUHU216DAVISVP2,2013-03-14 16:02:00,
2013-03-14 12:07:00,30.0,19.7,30.31,East,85,0.0,8.0,65,0.00,,,0.00,WUHU216DAVISVP2,2013-03-14 16:07:00,
2013-03-14 12:12:00,30.3,20.4,30.31,NNW,342,3.0,8.0,66,0.00,,,0.00,WUHU216DAVISVP2,2013-03-14 16:12:00,
2013-03-14 12:17:00,30.1,19.8,30.31,North,1,3.0,8.0,65,0.00,,,0.00,WUHU216DAVISVP2,2013-03-14 16:17:00,
2013-03-14 12:22:00,30.1,19.4,30.31,NNE,27,3.0,8.0,64,0.00,,,0.00,WUHU216DAVISVP2,2013-03-14 16:22:00,
2013-03-14 12:27:00,29.9,19.6,30.31,WNW,301,2.0,8.0,65,0.00,,,0.00,WUHU216DAVISVP2,2013-03-14 16:27:00,
2013-03-14 12:32:00,30.0,19.4,30.31,WSW,245,0.0,8.0,64,0.00,,,0.00,WUHU216DAVISVP2,2013-03-14 16:32:00,
2013-03-14 12:37:00,30.6,19.9,30.31,West,280,0.0,9.0,64,0.00,,,0.00,WUHU216DAVISVP2,2013-03-14 16:37:00,
2013-03-14 12:42:00,30.9,19.4,30.31,WSW,250,0.0,9.0,62,0.00,,,0.00,WUHU216DAVISVP2,2013-03-14 16:42:00,
2013-03-14 12:47:00,31.2,19.7,30.30,NNW,328,3.0,10.0,62,0.00,,,0.00,WUHU216DAVISVP2,2013-03-14 16:47:00,
2013-03-14 12:52:00,31.6,19.7,30.30,NNW,345,2.0,10.0,61,0.00,,,0.00,WUHU216DAVISVP2,2013-03-14 16:52:00,
2013-03-14 12:57:00,31.5,19.6,30.31,NNE,23,6.0,10.0,61,0.00,,,0.00,WUHU216DAVISVP2,2013-03-14 16:57:00,
2013-03-14 13:02:00,30.9,19.5,30.31,South,169,1.0,10.0,62,0.00,,,0.00,WUHU216DAVISVP2,2013-03-14 17:02:00,
2013-03-14 13:07:00,31.3,19.8,30.31,SW,233,1.0,7.0,62,0.00,,,0.00,WUHU216DAVISVP2,2013-03-14 17:07:00,
2013-03-14 13:12:00,31.5,20.0,30.31,North,360,2.0,7.0,62,0.00,,,0.00,WUHU216DAVISVP2,2013-03-14 17:12:00,
2013-03-14 13:18:00,32.0,20.4,30.31,NNE,25,3.0,7.0,62,0.00,,,0.00,WUHU216DAVISVP2,2013-03-14 17:18:00,
2013-03-14 13:23:00,31.8,20.3,30.30,WNW,285,2.0,9.0,62,0.00,,,0.00,WUHU216DAVISVP2,2013-03-14 17:23:00,
2013-03-14 13:28:00,32.2,20.7,30.31,North,11,8.0,9.0,62,0.00,,,0.00,WUHU216DAVISVP2,2013-03-14 17:28:00,
2013-03-14 13:33:00,32.0,20.1,30.30,North,360,4.0,10.0,61,0.00,,,0.00,WUHU216DAVISVP2,2013-03-14 17:33:00,
2013-03-14 13:38:00,31.9,20.7,30.30,West,276,1.0,11.0,63,0.00,,,0.00,WUHU216DAVISVP2,2013-03-14 17:38:00,
2013-03-14 13:43:00,32.1,20.6,30.30,WSW,247,0.0,11.0,62,0.00,,,0.00,WUHU216DAVISVP2,2013-03-14 17:43:00,
2013-03-14 13:48:00,32.6,21.1,30.30,North,10,2.0,10.0,62,0.00,,,0.00,WUHU216DAVISVP2,2013-03-14 17:48:00,
2013-03-14 13:53:00,32.8,21.6,30.30,NE,44,2.0,10.0,63,0.00,,,0.00,WUHU216DAVISVP2,2013-03-14 17:53:00,
2013-03-14 13:58:00,32.5,20.9,30.30,NNW,346,3.0,10.0,62,0.00,,,0.00,WUHU216DAVISVP2,2013-03-14 17:58:00,
2013-03-14 14:03:00,32.5,20.2,30.30,NNW,343,1.0,10.0,60,0.00,,,0.00,WUHU216DAVISVP2,2013-03-14 18:03:00,
2013-03-14 14:08:00,32.6,20.3,30.29,WNW,289,0.0,10.0,60,0.00,,,0.00,WUHU216DAVISVP2,2013-03-14 18:08:00,
2013-03-14 14:13:00,32.9,21.0,30.29,NNW,347,2.0,10.0,61,0.00,,,0.00,WUHU216DAVISVP2,2013-03-14 18:13:00,
2013-03-14 14:18:00,33.3,21.3,30.29,WSW,240,3.0,9.0,61,0.00,,,0.00,WUHU216DAVISVP2,2013-03-14 18:18:00,
2013-03-14 14:23:00,32.9,20.5,30.28,NW,307,1.0,9.0,60,0.00,,,0.00,WUHU216DAVISVP2,2013-03-14 18:23:00,
2013-03-14 14:28:00,32.2,20.3,30.28,WSW,255,1.0,9.0,61,0.00,,,0.00,WUHU216DAVISVP2,2013-03-14 18:28:00,
2013-03-14 14:33:00,32.4,20.5,30.28,NNE,33,5.0,8.0,61,0.00,,,0.00,WUHU216DAVISVP2,2013-03-14 18:33:00,
2013-03-14 14:38:00,32.6,21.1,30.28,NW,323,4.0,11.0,62,0.00,,,0.00,WUHU216DAVISVP2,2013-03-14 18:38:00,
2013-03-14 14:43:00,32.9,21.0,30.28,NW,324,2.0,11.0,61,0.00,,,0.00,WUHU216DAVISVP2,2013-03-14 18:43:00,
2013-03-14 14:48:00,33.0,20.6,30.28,NNW,348,6.0,9.0,60,0.00,,,0.00,WUHU216DAVISVP2,2013-03-14 18:48:00,
2013-03-14 14:53:00,33.2,20.5,30.28,NE,36,1.0,9.0,59,0.00,,,0.00,WUHU216DAVISVP2,2013-03-14 18:53:00,
2013-03-14 14:58:00,33.0,20.3,30.28,SW,222,2.0,9.0,59,0.00,,,0.00,WUHU216DAVISVP2,2013-03-14 18:58:00,
2013-03-14 15:03:00,33.3,20.6,30.27,WSW,245,1.0,9.0,59,0.00,,,0.00,WUHU216DAVISVP2,2013-03-14 19:03:00,
2013-03-14 15:08:00,33.4,21.0,30.27,NNW,338,3.0,9.0,60,0.00,,,0.00,WUHU216DAVISVP2,2013-03-14 19:08:00,
2013-03-14 15:13:00,33.7,21.7,30.27,North,350,3.0,8.0,61,0.00,,,0.00,WUHU216DAVISVP2,2013-03-14 19:13:00,
2013-03-14 15:18:00,33.9,20.3,30.27,NW,326,2.0,9.0,57,0.00,,,0.00,WUHU216DAVISVP2,2013-03-14 19:18:00,
2013-03-14 15:23:00,33.8,19.7,30.27,North,359,2.0,9.0,56,0.00,,,0.00,WUHU216DAVISVP2,2013-03-14 19:23:00,
2013-03-14 15:28:00,33.9,19.8,30.26,ENE,57,4.0,8.0,56,0.00,,,0.00,WUHU216DAVISVP2,2013-03-14 19:28:00,
2013-03-14 15:33:00,34.3,20.2,30.27,SSE,155,3.0,7.0,56,0.00,,,0.00,WUHU216DAVISVP2,2013-03-14 19:33:00,
2013-03-14 15:38:00,34.8,21.1,30.27,SSW,201,4.0,7.0,57,0.00,,,0.00,WUHU216DAVISVP2,2013-03-14 19:38:00,
2013-03-14 15:43:00,34.8,20.7,30.26,SSW,204,2.0,7.0,56,0.00,,,0.00,WUHU216DAVISVP2,2013-03-14 19:43:00,
2013-03-14 15:48:00,35.0,20.5,30.26,NNW,346,3.0,7.0,55,0.00,,,0.00,WUHU216DAVISVP2,2013-03-14 19:48:00,
2013-03-14 15:53:00,34.7,19.7,30.26,North,355,1.0,8.0,54,0.00,,,0.00,WUHU216DAVISVP2,2013-03-14 19:53:00,
2013-03-14 15:58:00,35.0,20.4,30.25,NNW,335,1.0,8.0,55,0.00,,,0.00,WUHU216DAVISVP2,2013-03-14 19:58:00,
2013-03-14 16:03:00,35.4,20.4,30.25,SW,228,0.0,8.0,54,0.01,,,0.01,WUHU216DAVISVP2,2013-03-14 20:03:00,
2013-03-14 16:08:00,35.4,20.8,30.25,SW,228,2.0,8.0,55,0.01,,,0.01,WUHU216DAVISVP2,2013-03-14 20:08:00,
2013-03-14 16:13:00,35.5,20.9,30.25,SW,236,1.0,7.0,55,0.01,,,0.01,WUHU216DAVISVP2,2013-03-14 20:13:00,
2013-03-14 16:18:00,35.4,20.8,30.25,North,357,2.0,7.0,55,0.01,,,0.01,WUHU216DAVISVP2,2013-03-14 20:18:00,
2013-03-14 16:23:00,35.7,20.7,30.25,SSE,166,0.0,6.0,54,0.01,,,0.01,WUHU216DAVISVP2,2013-03-14 20:23:00,
2013-03-14 16:28:00,35.8,20.3,30.25,NNE,23,4.0,6.0,53,0.01,,,0.01,WUHU216DAVISVP2,2013-03-14 20:28:00,
2013-03-14 16:33:00,35.9,20.9,30.25,NNW,335,0.0,5.0,54,0.01,,,0.01,WUHU216DAVISVP2,2013-03-14 20:33:00,
2013-03-14 16:38:00,36.2,21.1,30.25,North,6,1.0,5.0,54,0.01,,,0.01,WUHU216DAVISVP2,2013-03-14 20:38:00,
2013-03-14 16:43:00,35.9,20.9,30.25,SE,145,0.0,10.0,54,0.01,,,0.01,WUHU216DAVISVP2,2013-03-14 20:43:00,
2013-03-14 16:48:00,36.0,21.0,30.25,NE,36,0.0,10.0,54,0.01,,,0.01,WUHU216DAVISVP2,2013-03-14 20:48:00,
2013-03-14 16:53:00,35.9,20.9,30.25,NNW,347,1.0,10.0,54,0.01,,,0.01,WUHU216DAVISVP2,2013-03-14 20:53:00,
2013-03-14 16:58:00,35.7,21.1,30.25,NNE,23,1.0,9.0,55,0.01,,,0.01,WUHU216DAVISVP2,2013-03-14 20:58:00,
2013-03-14 17:03:00,36.2,22.0,30.25,SSW,195,1.0,9.0,56,0.00,,,0.01,WUHU216DAVISVP2,2013-03-14 21:03:00,
2013-03-14 17:08:00,36.5,21.9,30.25,WSW,246,1.0,8.0,55,0.00,,,0.01,WUHU216DAVISVP2,2013-03-14 21:08:00,
2013-03-14 17:13:00,36.5,21.9,30.25,NE,47,3.0,8.0,55,0.00,,,0.01,WUHU216DAVISVP2,2013-03-14 21:13:00,
2013-03-14 17:18:00,36.4,21.8,30.25,NE,39,0.0,8.0,55,0.00,,,0.01,WUHU216DAVISVP2,2013-03-14 21:18:00,
2013-03-14 17:23:00,36.1,21.9,30.25,WSW,238,2.0,8.0,56,0.00,,,0.01,WUHU216DAVISVP2,2013-03-14 21:23:00,
2013-03-14 17:28:00,36.2,22.0,30.25,NNW,328,1.0,7.0,56,0.00,,,0.01,WUHU216DAVISVP2,2013-03-14 21:28:00,
2013-03-14 17:33:00,36.1,21.9,30.25,SE,134,0.0,7.0,56,0.00,,,0.01,WUHU216DAVISVP2,2013-03-14 21:33:00,
2013-03-14 17:38:00,36.2,21.6,30.25,West,277,0.0,6.0,55,0.00,,,0.01,WUHU216DAVISVP2,2013-03-14 21:38:00,
2013-03-14 17:43:00,36.7,22.5,30.25,NNW,332,1.0,6.0,56,0.00,,,0.01,WUHU216DAVISVP2,2013-03-14 21:43:00,
2013-03-14 17:48:00,36.7,21.6,30.25,South,172,1.0,5.0,54,0.00,,,0.01,WUHU216DAVISVP2,2013-03-14 21:48:00,
2013-03-14 17:53:00,36.5,21.0,30.24,NNE,18,2.0,7.0,53,0.00,,,0.01,WUHU216DAVISVP2,2013-03-14 21:53:00,
2013-03-14 17:58:00,36.3,20.8,30.24,NW,319,0.0,7.0,53,0.00,,,0.01,WUHU216DAVISVP2,2013-03-14 21:58:00,
2013-03-14 18:03:00,36.4,19.9,30.24,SSE,157,1.0,6.0,51,0.00,,,0.01,WUHU216DAVISVP2,2013-03-14 22:03:00,
2013-03-14 18:08:00,36.2,19.8,30.24,NW,319,2.0,6.0,51,0.00,,,0.01,WUHU216DAVISVP2,2013-03-14 22:08:00,
2013-03-14 18:13:00,36.1,19.7,30.24,NW,307,0.0,6.0,51,0.00,,,0.01,WUHU216DAVISVP2,2013-03-14 22:13:00,
2013-03-14 18:18:00,36.3,20.3,30.24,NW,309,1.0,6.0,52,0.00,,,0.01,WUHU216DAVISVP2,2013-03-14 22:18:00,
2013-03-14 18:23:00,35.9,19.5,30.24,NNW,335,2.0,6.0,51,0.00,,,0.01,WUHU216DAVISVP2,2013-03-14 22:23:00,
2013-03-14 18:28:00,35.8,18.9,30.24,North,9,1.0,6.0,50,0.00,,,0.01,WUHU216DAVISVP2,2013-03-14 22:28:00,
2013-03-14 18:33:00,35.4,19.0,30.24,SSE,155,0.0,7.0,51,0.00,,,0.01,WUHU216DAVISVP2,2013-03-14 22:33:00,
2013-03-14 18:38:00,35.0,19.1,30.24,SW,235,0.0,7.0,52,0.00,,,0.01,WUHU216DAVISVP2,2013-03-14 22:38:00,
2013-03-14 18:43:00,34.8,19.4,30.23,NW,324,0.0,6.0,53,0.00,,,0.01,WUHU216DAVISVP2,2013-03-14 22:43:00,
2013-03-14 18:48:00,34.6,19.6,30.23,NNE,23,3.0,5.0,54,0.00,,,0.01,WUHU216DAVISVP2,2013-03-14 22:48:00,
2013-03-14 18:53:00,34.4,19.5,30.23,West,276,0.0,5.0,54,0.00,,,0.01,WUHU216DAVISVP2,2013-03-14 22:53:00,
2013-03-14 18:58:00,34.1,19.6,30.23,SSW,203,0.0,4.0,55,0.00,,,0.01,WUHU216DAVISVP2,2013-03-14 22:58:00,
2013-03-14 19:03:00,34.0,19.5,30.23,WNW,283,0.0,5.0,55,0.00,,,0.01,WUHU216DAVISVP2,2013-03-14 23:03:00,
2013-03-14 19:08:00,33.9,19.4,30.23,SE,146,0.0,5.0,55,0.00,,,0.01,WUHU216DAVISVP2,2013-03-14 23:08:00,
2013-03-14 19:13:00,33.7,19.2,30.23,NE,44,0.0,4.0,55,0.00,,,0.01,WUHU216DAVISVP2,2013-03-14 23:13:00,
2013-03-14 19:18:00,33.5,19.5,30.23,NNW,347,0.0,4.0,56,0.00,,,0.01,WUHU216DAVISVP2,2013-03-14 23:18:00,
2013-03-14 19:23:00,33.3,19.3,30.23,SSW,213,0.0,2.0,56,0.00,,,0.01,WUHU216DAVISVP2,2013-03-14 23:23:00,
2013-03-14 19:28:00,33.1,19.1,30.23,NNE,26,0.0,2.0,56,0.00,,,0.01,WUHU216DAVISVP2,2013-03-14 23:28:00,
2013-03-14 19:33:00,32.9,19.3,30.22,SSE,148,0.0,2.0,57,0.00,,,0.01,WUHU216DAVISVP2,2013-03-14 23:33:00,
2013-03-14 19:38:00,32.8,19.3,30.22,SSE,165,0.0,2.0,57,0.00,,,0.01,WUHU216DAVISVP2,2013-03-14 23:38:00,
2013-03-14 19:43:00,32.6,19.1,30.22,WSW,247,0.0,2.0,57,0.00,,,0.01,WUHU216DAVISVP2,2013-03-14 23:43:00,
2013-03-14 19:48:00,32.5,19.4,30.22,WSW,240,0.0,1.0,58,0.00,,,0.01,WUHU216DAVISVP2,2013-03-14 23:48:00,
2013-03-14 19:53:00,32.2,19.1,30.22,WSW,240,0.0,1.0,58,0.00,,,0.01,WUHU216DAVISVP2,2013-03-14 23:53:00,
2013-03-14 19:58:00,32.1,19.4,30.22,WSW,240,0.0,1.0,59,0.00,,,0.01,WUHU216DAVISVP2,2013-03-14 23:58:00,
2013-03-14 20:03:00,31.9,19.6,30.22,WSW,240,0.0,0.0,60,0.00,,,0.01,WUHU216DAVISVP2,2013-03-15 00:03:00,
2013-03-14 20:08:00,31.7,19.4,30.22,WSW,240,0.0,0.0,60,0.00,,,0.01,WUHU216DAVISVP2,2013-03-15 00:08:00,
2013-03-14 20:13:00,31.5,19.6,30.22,WSW,240,0.0,0.0,61,0.00,,,0.01,WUHU216DAVISVP2,2013-03-15 00:13:00,
2013-03-14 20:19:00,31.4,19.5,30.22,WSW,240,0.0,0.0,61,0.00,,,0.01,WUHU216DAVISVP2,2013-03-15 00:19:00,
2013-03-14 20:24:00,31.2,20.1,30.22,WSW,240,1.0,1.0,63,0.00,,,0.01,WUHU216DAVISVP2,2013-03-15 00:24:00,
2013-03-14 20:29:00,31.2,20.1,30.21,NNE,28,0.0,1.0,63,0.00,,,0.01,WUHU216DAVISVP2,2013-03-15 00:29:00,
2013-03-14 20:34:00,31.3,20.2,30.21,NNE,29,0.0,1.0,63,0.00,,,0.01,WUHU216DAVISVP2,2013-03-15 00:34:00,
2013-03-14 20:39:00,31.3,20.2,30.21,NNE,29,0.0,1.0,63,0.00,,,0.01,WUHU216DAVISVP2,2013-03-15 00:39:00,
2013-03-14 20:44:00,31.3,20.2,30.21,NNE,29,0.0,1.0,63,0.00,,,0.01,WUHU216DAVISVP2,2013-03-15 00:44:00,
2013-03-14 20:49:00,31.3,20.2,30.21,NNE,28,0.0,1.0,63,0.00,,,0.01,WUHU216DAVISVP2,2013-03-15 00:49:00,
2013-03-14 20:54:00,31.3,20.5,30.22,North,360,0.0,1.0,64,0.00,,,0.01,WUHU216DAVISVP2,2013-03-15 00:54:00,
2013-03-14 20:59:00,31.2,20.5,30.22,NE,44,0.0,1.0,64,0.00,,,0.01,WUHU216DAVISVP2,2013-03-15 00:59:00,
2013-03-14 21:04:00,31.2,20.4,30.22,NE,44,0.0,1.0,64,0.00,,,0.01,WUHU216DAVISVP2,2013-03-15 01:04:00,
2013-03-14 21:09:00,31.0,20.3,30.22,NE,45,0.0,1.0,64,0.00,,,0.01,WUHU216DAVISVP2,2013-03-15 01:09:00,
2013-03-14 21:13:00,30.8,20.4,30.22,NE,46,0.0,1.0,65,0.00,,,0.01,WUHU216DAVISVP2,2013-03-15 01:13:00,
2013-03-14 21:19:00,30.8,20.8,30.22,NE,46,0.0,1.0,66,0.00,,,0.01,WUHU216DAVISVP2,2013-03-15 01:19:00,
2013-03-14 21:23:00,30.6,21.0,30.22,NE,46,0.0,0.0,67,0.00,,,0.01,WUHU216DAVISVP2,2013-03-15 01:23:00,
2013-03-14 21:29:00,30.6,21.0,30.22,NE,46,0.0,0.0,67,0.00,,,0.01,WUHU216DAVISVP2,2013-03-15 01:29:00,
2013-03-14 21:34:00,30.5,20.8,30.21,NE,46,0.0,0.0,67,0.00,,,0.01,WUHU216DAVISVP2,2013-03-15 01:34:00,
2013-03-14 21:39:00,30.5,21.3,30.22,NE,46,0.0,0.0,68,0.00,,,0.01,WUHU216DAVISVP2,2013-03-15 01:39:00,
2013-03-14 21:44:00,30.3,20.7,30.21,NE,45,0.0,0.0,67,0.00,,,0.01,WUHU216DAVISVP2,2013-03-15 01:44:00,
2013-03-14 21:49:00,30.2,20.9,30.21,NE,46,0.0,0.0,68,0.00,,,0.01,WUHU216DAVISVP2,2013-03-15 01:49:00,
2013-03-14 21:54:00,30.1,21.2,30.21,NE,46,0.0,0.0,69,0.00,,,0.01,WUHU216DAVISVP2,2013-03-15 01:54:00,
2013-03-14 21:59:00,30.1,21.2,30.21,NE,45,0.0,0.0,69,0.00,,,0.01,WUHU216DAVISVP2,2013-03-15 01:59:00,
2013-03-14 22:04:00,30.0,21.5,30.21,NE,46,0.0,0.0,70,0.00,,,0.01,WUHU216DAVISVP2,2013-03-15 02:04:00,
2013-03-14 22:09:00,30.0,21.4,30.20,NE,46,0.0,0.0,70,0.00,,,0.01,WUHU216DAVISVP2,2013-03-15 02:09:00,
2013-03-14 22:14:00,30.0,21.5,30.20,NE,46,0.0,0.0,70,0.00,,,0.01,WUHU216DAVISVP2,2013-03-15 02:14:00,
2013-03-14 22:19:00,30.0,21.8,30.20,NE,46,0.0,0.0,71,0.00,,,0.01,WUHU216DAVISVP2,2013-03-15 02:19:00,
2013-03-14 22:24:00,29.9,21.7,30.20,NE,46,0.0,0.0,71,0.00,,,0.01,WUHU216DAVISVP2,2013-03-15 02:24:00,
2013-03-14 22:29:00,29.8,21.6,30.20,NE,46,0.0,0.0,71,0.00,,,0.01,WUHU216DAVISVP2,2013-03-15 02:29:00,
2013-03-14 22:34:00,29.6,21.4,30.20,NE,45,0.0,0.0,71,0.00,,,0.01,WUHU216DAVISVP2,2013-03-15 02:34:00,
2013-03-14 22:39:00,29.4,21.5,30.20,NE,46,0.0,0.0,72,0.00,,,0.01,WUHU216DAVISVP2,2013-03-15 02:39:00,
2013-03-14 22:44:00,29.2,21.7,30.20,NE,46,0.0,0.0,73,0.00,,,0.01,WUHU216DAVISVP2,2013-03-15 02:44:00,
2013-03-14 22:49:00,29.1,21.5,30.20,NE,46,0.0,0.0,73,0.00,,,0.01,WUHU216DAVISVP2,2013-03-15 02:49:00,
2013-03-14 22:54:00,28.9,21.4,30.20,NE,46,0.0,0.0,73,0.00,,,0.01,WUHU216DAVISVP2,2013-03-15 02:54:00,
2013-03-14 22:59:00,28.7,21.5,30.20,NE,46,0.0,0.0,74,0.00,,,0.01,WUHU216DAVISVP2,2013-03-15 02:59:00,
2013-03-14 23:04:00,28.6,21.4,30.20,NE,46,0.0,0.0,74,0.00,,,0.01,WUHU216DAVISVP2,2013-03-15 03:04:00,
2013-03-14 23:09:00,28.8,21.9,30.19,ENE,67,0.0,1.0,75,0.00,,,0.01,WUHU216DAVISVP2,2013-03-15 03:09:00,
2013-03-14 23:14:00,29.0,22.1,30.18,SSE,165,0.0,1.0,75,0.00,,,0.01,WUHU216DAVISVP2,2013-03-15 03:14:00,
2013-03-14 23:19:00,29.2,22.3,30.18,SSE,165,0.0,1.0,75,0.00,,,0.01,WUHU216DAVISVP2,2013-03-15 03:19:00,
2013-03-14 23:24:00,29.3,22.0,30.18,SW,215,0.0,1.0,74,0.00,,,0.01,WUHU216DAVISVP2,2013-03-15 03:24:00,
2013-03-14 23:29:00,29.5,22.6,30.17,South,177,0.0,2.0,75,0.00,,,0.01,WUHU216DAVISVP2,2013-03-15 03:29:00,
2013-03-14 23:34:00,29.7,22.5,30.17,South,170,1.0,2.0,74,0.00,,,0.01,WUHU216DAVISVP2,2013-03-15 03:34:00,
2013-03-14 23:39:00,29.9,22.7,30.18,SSE,152,0.0,2.0,74,0.00,,,0.01,WUHU216DAVISVP2,2013-03-15 03:39:00,
2013-03-14 23:44:00,30.1,22.9,30.17,SSW,193,0.0,4.0,74,0.00,,,0.01,WUHU216DAVISVP2,2013-03-15 03:44:00,
2013-03-14 23:49:00,30.3,22.7,30.17,SW,231,1.0,4.0,73,0.00,,,0.01,WUHU216DAVISVP2,2013-03-15 03:49:00,
2013-03-14 23:54:00,30.5,22.9,30.17,SSE,166,3.0,4.0,73,0.00,,,0.01,WUHU216DAVISVP2,2013-03-15 03:54:00,
2013-03-14 23:59:00,30.7,22.7,30.17,SSW,198,0.0,4.0,72,0.00,,,0.01,WUHU216DAVISVP2,2013-03-15 03:59:00,